createdAt,value
2018-12-19T00:02:21.168Z,5.73
2018-12-19T00:04:49.591Z,5.83
2018-12-19T00:07:17.972Z,5.51
2018-12-19T00:09:46.356Z,5.40
2018-12-19T00:12:14.728Z,5.63
2018-12-19T00:14:43.124Z,5.72
2018-12-19T00:17:11.605Z,5.95
2018-12-19T00:19:40.079Z,6.01
2018-12-19T00:22:08.463Z,6.02
2018-12-19T00:24:36.828Z,6.02
2018-12-19T00:27:05.225Z,5.91
2018-12-19T00:29:33.576Z,6.00
2018-12-19T00:32:02.155Z,6.00
2018-12-19T00:34:30.651Z,5.89
2018-12-19T00:36:59.079Z,5.95
2018-12-19T00:39:27.437Z,6.02
2018-12-19T00:41:55.815Z,5.97
2018-12-19T00:44:24.191Z,6.00
2018-12-19T00:46:52.577Z,5.99
2018-12-19T00:49:20.936Z,5.97
2018-12-19T00:51:49.363Z,6.09
2018-12-19T00:54:17.723Z,6.15
2018-12-19T00:56:46.121Z,6.21
2018-12-19T00:59:14.535Z,6.30
2018-12-19T01:01:42.970Z,6.11
2018-12-19T01:04:11.323Z,6.15
2018-12-19T01:06:40.283Z,6.11
2018-12-19T01:09:08.736Z,6.12
2018-12-19T01:11:37.156Z,5.98
2018-12-19T01:14:06.343Z,5.93
2018-12-19T01:16:34.731Z,5.86
2018-12-19T01:19:03.159Z,5.81
2018-12-19T01:21:31.533Z,5.77
2018-12-19T01:23:59.935Z,5.66
2018-12-19T01:26:28.355Z,5.63
2018-12-19T01:28:56.734Z,5.51
2018-12-19T01:31:25.119Z,5.40
2018-12-19T01:33:53.637Z,5.27
2018-12-19T01:36:22.072Z,5.18
2018-12-19T01:38:50.512Z,5.16
2018-12-19T01:41:18.927Z,5.08
2018-12-19T01:43:47.372Z,5.01
2018-12-19T01:46:15.778Z,4.97
2018-12-19T01:48:44.159Z,4.94
2018-12-19T01:51:12.655Z,4.91
2018-12-19T01:53:42.123Z,4.85
2018-12-19T01:56:10.545Z,4.86
2018-12-19T01:58:38.899Z,4.82
2018-12-19T02:01:07.330Z,4.81
2018-12-19T02:03:35.699Z,4.77
2018-12-19T02:06:04.076Z,4.79
2018-12-19T02:08:32.463Z,4.79
2018-12-19T02:11:00.882Z,4.75
2018-12-19T02:13:29.267Z,4.79
2018-12-19T02:15:57.728Z,4.77
2018-12-19T02:18:26.121Z,4.73
2018-12-19T02:20:54.496Z,4.69
2018-12-19T02:23:22.896Z,4.70
2018-12-19T02:25:51.296Z,4.71
2018-12-19T02:28:19.703Z,4.81
2018-12-19T02:30:48.106Z,4.92
2018-12-19T02:33:16.476Z,4.96
2018-12-19T02:35:44.853Z,5.00
2018-12-19T02:38:13.266Z,5.09
2018-12-19T02:40:41.652Z,5.18
2018-12-19T02:43:10.093Z,5.29
2018-12-19T02:45:38.474Z,5.42
2018-12-19T02:48:06.859Z,5.48
2018-12-19T02:50:35.273Z,5.51
2018-12-19T02:53:03.684Z,5.47
2018-12-19T02:55:32.096Z,5.45
2018-12-19T02:58:00.461Z,5.49
2018-12-19T03:00:28.832Z,5.50
2018-12-19T03:02:57.214Z,5.46
2018-12-19T03:05:25.594Z,5.42
2018-12-19T03:07:54.017Z,5.38
2018-12-19T03:10:22.404Z,5.40
2018-12-19T03:12:50.846Z,5.38
2018-12-19T03:15:19.321Z,5.37
2018-12-19T03:17:47.767Z,5.38
2018-12-19T03:20:16.246Z,5.67
2018-12-19T03:22:44.631Z,5.88
2018-12-19T03:25:13.015Z,5.95
2018-12-19T03:27:41.402Z,6.04
2018-12-19T03:30:10.064Z,6.35
2018-12-19T03:32:38.464Z,6.51
2018-12-19T03:35:06.992Z,6.53
2018-12-19T03:37:35.381Z,6.64
2018-12-19T03:40:10.360Z,6.70
2018-12-19T03:42:38.751Z,6.63
2018-12-19T03:45:07.581Z,6.56
2018-12-19T03:47:36.085Z,6.79
2018-12-19T03:50:04.982Z,6.85
2018-12-19T03:52:33.372Z,6.75
2018-12-19T03:55:01.764Z,6.76
2018-12-19T03:57:30.371Z,6.75
2018-12-19T03:59:58.739Z,6.79
2018-12-19T04:02:27.129Z,6.76
2018-12-19T04:04:55.555Z,6.90
2018-12-19T04:07:23.973Z,6.82
2018-12-19T04:09:57.636Z,6.94
2018-12-19T04:12:23.936Z,7.15
2018-12-19T04:14:53.475Z,7.33
2018-12-19T04:17:21.972Z,7.35
2018-12-19T04:19:50.343Z,7.36
2018-12-19T04:22:18.817Z,7.47
2018-12-19T04:24:47.207Z,7.47
2018-12-19T04:27:15.586Z,7.46
2018-12-19T04:29:44.165Z,7.58
2018-12-19T04:32:12.877Z,7.60
2018-12-19T04:34:41.257Z,7.62
2018-12-19T04:37:09.712Z,7.56
2018-12-19T04:39:38.137Z,7.50
2018-12-19T04:42:06.516Z,7.54
2018-12-19T04:44:34.906Z,7.52
2018-12-19T04:47:03.280Z,7.49
2018-12-19T04:49:31.726Z,7.49
2018-12-19T04:52:00.092Z,7.51
2018-12-19T04:54:28.483Z,7.50
2018-12-19T04:56:57.091Z,7.54
2018-12-19T04:59:25.604Z,7.53
2018-12-19T05:01:54.059Z,7.51
2018-12-19T05:04:22.519Z,7.52
2018-12-19T05:06:50.905Z,7.58
2018-12-19T05:09:19.296Z,7.63
2018-12-19T05:11:47.687Z,7.61
2018-12-19T05:14:16.387Z,7.69
2018-12-19T05:16:44.911Z,7.72
2018-12-19T05:19:13.315Z,7.72
2018-12-19T05:21:41.675Z,7.63
2018-12-19T05:24:10.147Z,7.72
2018-12-19T05:26:38.532Z,7.86
2018-12-19T05:29:09.007Z,7.97
2018-12-19T05:31:37.387Z,8.00
2018-12-19T05:34:05.763Z,7.99
2018-12-19T05:36:34.141Z,7.98
2018-12-19T05:39:10.968Z,8.01
2018-12-19T05:41:39.372Z,8.01
2018-12-19T05:44:07.781Z,7.97
2018-12-19T05:46:36.159Z,7.98
2018-12-19T05:49:04.555Z,7.95
2018-12-19T05:51:33.016Z,7.94
2018-12-19T05:54:01.447Z,7.89
2018-12-19T05:56:30.815Z,7.85
2018-12-19T05:59:19.806Z,7.78
2018-12-19T06:01:49.151Z,7.73
2018-12-19T06:04:17.616Z,7.73
2018-12-19T06:06:46.066Z,7.80
2018-12-19T06:09:14.521Z,7.82
2018-12-19T06:11:42.905Z,7.83
2018-12-19T06:14:11.287Z,7.84
2018-12-19T06:16:39.711Z,7.90
2018-12-19T06:19:08.108Z,7.79
2018-12-19T06:21:36.579Z,7.77
2018-12-19T06:24:04.971Z,7.63
2018-12-19T06:26:33.955Z,7.60
2018-12-19T06:29:02.364Z,7.51
2018-12-19T06:31:30.808Z,7.35
2018-12-19T06:33:59.700Z,7.33
2018-12-19T06:36:28.319Z,7.37
2018-12-19T06:38:56.741Z,7.07
2018-12-19T06:41:25.136Z,6.84
2018-12-19T06:43:53.651Z,6.75
2018-12-19T06:46:22.036Z,6.73
2018-12-19T06:48:50.414Z,6.63
2018-12-19T06:51:19.117Z,6.46
2018-12-19T06:53:47.548Z,6.22
2018-12-19T06:56:15.911Z,6.19
2018-12-19T06:58:44.312Z,6.21
2018-12-19T07:01:12.683Z,5.98
2018-12-19T07:03:41.064Z,5.85
2018-12-19T07:06:09.756Z,5.89
2018-12-19T07:08:38.562Z,5.94
2018-12-19T07:11:06.971Z,5.96
2018-12-19T07:13:35.423Z,5.97
2018-12-19T07:16:03.799Z,6.01
2018-12-19T07:18:32.235Z,6.06
2018-12-19T07:21:01.039Z,6.13
2018-12-19T07:23:29.457Z,6.25
2018-12-19T07:25:57.927Z,6.22
2018-12-19T07:28:26.335Z,6.28
2018-12-19T07:30:54.725Z,6.81
2018-12-19T07:33:23.115Z,6.99
2018-12-19T07:35:51.556Z,7.12
2018-12-19T07:38:20.239Z,7.19
2018-12-19T07:40:59.983Z,7.18
2018-12-19T07:43:28.419Z,7.26
2018-12-19T07:45:56.828Z,7.30
2018-12-19T07:48:26.115Z,7.33
2018-12-19T07:50:54.608Z,7.29
2018-12-19T07:53:23.084Z,7.19
2018-12-19T07:55:51.619Z,7.12
2018-12-19T07:58:20.012Z,7.20
2018-12-19T08:00:48.404Z,7.14
2018-12-19T08:03:16.807Z,7.10
2018-12-19T08:05:45.213Z,7.17
2018-12-19T08:08:13.559Z,7.26
2018-12-19T08:10:42.039Z,7.09
2018-12-19T08:13:10.428Z,7.17
2018-12-19T08:15:38.907Z,7.13
2018-12-19T08:18:07.386Z,7.15
2018-12-19T08:20:35.832Z,7.35
2018-12-19T08:23:04.184Z,7.42
2018-12-19T08:25:32.603Z,7.32
2018-12-19T08:28:00.968Z,7.22
2018-12-19T08:30:29.384Z,7.24
2018-12-19T08:32:57.882Z,7.22
2018-12-19T08:35:26.263Z,7.19
2018-12-19T08:37:54.641Z,7.29
2018-12-19T08:40:23.027Z,7.33
2018-12-19T08:42:51.496Z,7.39
2018-12-19T08:45:20.605Z,7.48
2018-12-19T08:47:49.091Z,7.52
2018-12-19T08:50:17.553Z,7.58
2018-12-19T08:52:45.988Z,7.65
2018-12-19T08:55:14.516Z,7.79
2018-12-19T08:57:42.988Z,7.86
2018-12-19T09:00:12.595Z,8.03
2018-12-19T09:02:40.969Z,8.23
2018-12-19T09:05:09.395Z,8.26
2018-12-19T09:07:37.770Z,8.40
2018-12-19T09:10:06.829Z,8.41
2018-12-19T09:12:35.211Z,8.23
2018-12-19T09:15:03.844Z,8.12
2018-12-19T09:17:32.268Z,8.16
2018-12-19T09:20:00.970Z,8.11
2018-12-19T09:22:29.504Z,8.07
2018-12-19T09:24:57.974Z,7.98
2018-12-19T09:27:26.352Z,7.93
2018-12-19T09:29:54.743Z,7.91
2018-12-19T09:32:23.103Z,7.95
2018-12-19T09:34:51.538Z,7.92
2018-12-19T09:37:19.960Z,7.96
2018-12-19T09:39:48.958Z,7.98
2018-12-19T09:42:17.320Z,7.95
2018-12-19T09:44:45.696Z,8.11
2018-12-19T09:47:14.071Z,8.12
2018-12-19T09:49:42.441Z,7.97
2018-12-19T09:52:10.832Z,7.86
2018-12-19T09:54:39.759Z,7.92
2018-12-19T09:57:08.191Z,7.98
2018-12-19T09:59:36.563Z,8.09
2018-12-19T10:02:18.242Z,8.11
2018-12-19T10:04:46.629Z,8.17
2018-12-19T10:07:15.011Z,8.25
2018-12-19T10:09:43.363Z,8.35
2018-12-19T10:12:11.740Z,8.49
2018-12-19T10:14:40.120Z,8.55
2018-12-19T10:17:08.535Z,8.58
2018-12-19T10:19:36.910Z,8.76
2018-12-19T10:22:05.417Z,8.92
2018-12-19T10:24:39.374Z,9.03
2018-12-19T10:27:07.753Z,9.15
2018-12-19T10:29:36.457Z,9.08
2018-12-19T10:32:04.956Z,9.02
2018-12-19T10:34:33.407Z,9.08
2018-12-19T10:37:01.905Z,9.17
2018-12-19T10:39:30.283Z,9.28
2018-12-19T10:41:59.157Z,9.47
2018-12-19T10:44:30.496Z,9.71
2018-12-19T10:55:48.091Z,9.91
2018-12-19T10:58:16.467Z,9.91
2018-12-19T11:00:50.101Z,9.90
2018-12-19T11:03:18.471Z,9.92
2018-12-19T11:05:46.876Z,9.95
2018-12-19T11:08:15.251Z,9.93
2018-12-19T11:10:45.130Z,9.99
2018-12-19T11:13:16.959Z,9.99
2018-12-19T11:15:45.807Z,10.06
2018-12-19T11:18:14.176Z,10.08
2018-12-19T11:20:43.164Z,10.14
2018-12-19T11:23:11.596Z,10.13
2018-12-19T11:25:40.177Z,10.13
2018-12-19T11:28:08.740Z,10.09
2018-12-19T11:30:37.112Z,10.09
2018-12-19T11:33:05.535Z,10.22
2018-12-19T11:35:33.988Z,10.23
2018-12-19T11:38:02.410Z,10.20
2018-12-19T11:40:30.820Z,10.23
2018-12-19T11:42:59.246Z,10.12
2018-12-19T11:45:27.663Z,10.17
2018-12-19T11:47:56.168Z,10.26
2018-12-19T11:50:24.603Z,10.33
2018-12-19T11:52:53.124Z,10.36
2018-12-19T11:55:21.550Z,10.26
2018-12-19T11:57:49.931Z,10.26
2018-12-19T12:00:18.407Z,10.29
2018-12-19T12:02:46.795Z,10.31
2018-12-19T12:05:15.193Z,10.37
2018-12-19T12:07:43.702Z,10.30
2018-12-19T12:10:12.211Z,10.40
2018-12-19T12:12:41.584Z,10.29
2018-12-19T12:15:10.199Z,10.30
2018-12-19T12:17:38.600Z,10.30
2018-12-19T12:23:05.612Z,10.46
2018-12-19T12:25:34.202Z,10.40
2018-12-19T12:28:02.848Z,10.43
2018-12-19T12:30:31.515Z,10.39
2018-12-19T12:33:00.059Z,10.36
2018-12-19T12:35:28.571Z,10.36
2018-12-19T12:37:57.236Z,10.42
2018-12-19T12:40:25.723Z,10.54
2018-12-19T12:42:54.300Z,10.55
2018-12-19T12:45:22.856Z,10.55
2018-12-19T12:47:51.259Z,10.51
2018-12-19T12:53:26.726Z,10.46
2018-12-19T12:55:55.909Z,10.35
2018-12-19T12:58:24.390Z,10.29
2018-12-19T13:00:52.752Z,10.24
2018-12-19T13:03:21.131Z,10.26
2018-12-19T13:05:49.523Z,10.35
2018-12-19T13:08:17.912Z,10.39
2018-12-19T13:10:47.427Z,10.47
2018-12-19T13:13:15.963Z,10.58
2018-12-19T13:15:48.000Z,10.51
2018-12-19T13:18:29.697Z,10.38
2018-12-19T13:20:58.251Z,10.26
2018-12-19T13:23:26.916Z,10.17
2018-12-19T13:25:55.524Z,10.02
2018-12-19T13:28:24.032Z,10.11
2018-12-19T13:36:32.031Z,10.20
2018-12-19T13:39:00.657Z,10.21
2018-12-19T13:41:29.182Z,10.32
2018-12-19T13:43:59.868Z,10.29
2018-12-19T13:49:30.860Z,10.35
2018-12-19T13:52:03.534Z,10.55
2018-12-19T13:54:36.678Z,10.47
2018-12-19T13:57:05.227Z,10.37
2018-12-19T13:59:34.610Z,10.31
2018-12-19T14:02:03.037Z,10.33
2018-12-19T14:04:32.059Z,10.18
2018-12-19T14:07:01.010Z,10.20
2018-12-19T14:09:29.404Z,10.20
2018-12-19T14:11:57.767Z,10.18
2018-12-19T14:14:26.162Z,10.39
2018-12-19T14:16:54.570Z,10.60
2018-12-19T14:19:22.961Z,10.42
2018-12-19T14:21:51.364Z,10.50
2018-12-19T14:24:19.751Z,10.13
2018-12-19T14:26:48.136Z,10.03
2018-12-19T14:29:16.556Z,9.87
2018-12-19T14:31:44.953Z,9.77
2018-12-19T14:34:13.319Z,9.63
2018-12-19T14:36:41.700Z,9.61
2018-12-19T14:39:10.083Z,9.43
2018-12-19T14:41:38.428Z,9.33
2018-12-19T14:44:06.851Z,9.26
2018-12-19T14:46:35.218Z,9.11
2018-12-19T14:49:03.998Z,9.06
2018-12-19T14:51:32.423Z,9.10
2018-12-19T14:54:00.807Z,9.14
2018-12-19T14:56:29.162Z,9.25
2018-12-19T14:58:57.568Z,9.31
2018-12-19T15:01:25.923Z,8.88
2018-12-19T15:03:54.324Z,8.63
2018-12-19T15:06:22.705Z,8.43
2018-12-19T15:08:51.091Z,8.25
2018-12-19T15:11:19.606Z,8.20
2018-12-19T15:13:47.988Z,8.04
2018-12-19T15:16:20.531Z,7.89
2018-12-19T15:18:48.921Z,7.84
2018-12-19T15:21:17.291Z,7.88
2018-12-19T15:23:45.665Z,7.88
2018-12-19T15:26:14.019Z,7.86
2018-12-19T15:28:42.399Z,7.92
2018-12-19T15:31:10.798Z,7.93
2018-12-19T15:33:39.182Z,7.92
2018-12-19T15:36:07.647Z,7.95
2018-12-19T15:38:36.032Z,7.96
2018-12-19T15:41:04.392Z,8.07
2018-12-19T15:43:32.787Z,8.00
2018-12-19T15:46:01.159Z,8.08
2018-12-19T15:48:29.681Z,8.06
2018-12-19T15:50:58.076Z,8.03
2018-12-19T15:53:26.468Z,8.04
2018-12-19T15:55:54.867Z,8.07
2018-12-19T15:58:23.348Z,8.19
2018-12-19T16:00:51.707Z,8.16
2018-12-19T16:03:20.099Z,8.19
2018-12-19T16:06:51.258Z,8.19
2018-12-19T16:09:19.644Z,8.24
2018-12-19T16:11:48.011Z,8.21
2018-12-19T16:14:16.384Z,8.09
2018-12-19T16:16:44.790Z,8.03
2018-12-19T16:19:13.156Z,7.99
2018-12-19T16:21:41.516Z,7.97
2018-12-19T16:24:09.907Z,8.00
2018-12-19T16:26:38.287Z,8.07
2018-12-19T16:29:06.747Z,8.00
2018-12-19T16:31:35.106Z,7.89
2018-12-19T16:34:03.507Z,7.78
2018-12-19T16:36:31.978Z,7.54
2018-12-19T16:39:00.369Z,7.45
2018-12-19T16:41:28.756Z,7.40
2018-12-19T16:43:57.228Z,7.47
2018-12-19T16:46:25.708Z,7.54
2018-12-19T16:48:54.083Z,7.58
2018-12-19T16:51:23.356Z,7.68
2018-12-19T16:53:51.744Z,7.77
2018-12-19T16:56:20.106Z,7.80
2018-12-19T16:58:48.520Z,7.78
2018-12-19T17:01:16.883Z,7.84
2018-12-19T17:03:45.260Z,7.87
2018-12-19T17:06:13.644Z,7.87
2018-12-19T17:08:42.040Z,7.94
2018-12-19T17:11:10.432Z,7.99
2018-12-19T17:13:38.835Z,8.05
2018-12-19T17:16:07.245Z,8.14
2018-12-19T17:18:35.599Z,8.22
2018-12-19T17:21:04.107Z,8.27
2018-12-19T17:23:32.455Z,8.33
2018-12-19T17:26:00.860Z,8.30
2018-12-19T17:28:29.272Z,8.25
2018-12-19T17:30:57.664Z,8.17
2018-12-19T17:33:26.024Z,8.13
2018-12-19T17:35:54.427Z,8.14
2018-12-19T17:38:22.816Z,8.13
2018-12-19T17:40:51.256Z,8.19
2018-12-19T17:43:19.685Z,8.10
2018-12-19T17:45:48.064Z,8.02
2018-12-19T17:48:16.879Z,8.00
2018-12-19T17:50:45.315Z,8.03
2018-12-19T17:53:13.798Z,8.00
2018-12-19T17:55:42.275Z,8.00
2018-12-19T17:58:11.006Z,8.03
2018-12-19T18:00:39.452Z,7.99
2018-12-19T18:03:07.868Z,8.00
2018-12-19T18:05:36.445Z,8.01
2018-12-19T18:08:04.879Z,7.97
2018-12-19T18:10:33.434Z,7.98
2018-12-19T18:13:06.093Z,7.98
2018-12-19T18:15:32.368Z,8.00
2018-12-19T18:18:00.757Z,7.97
2018-12-19T18:20:29.188Z,7.85
2018-12-19T18:22:57.912Z,7.80
2018-12-19T18:25:26.316Z,7.74
2018-12-19T18:27:54.702Z,7.72
2018-12-19T18:30:23.098Z,7.69
2018-12-19T18:32:51.728Z,7.67
2018-12-19T18:35:20.145Z,7.64
2018-12-19T18:37:48.503Z,7.64
2018-12-19T18:40:16.956Z,7.61
2018-12-19T18:42:45.596Z,7.58
2018-12-19T18:45:14.059Z,7.65
2018-12-19T18:47:42.461Z,7.69
2018-12-19T18:50:10.991Z,7.56
2018-12-19T18:52:39.372Z,7.50
2018-12-19T18:55:08.305Z,7.44
2018-12-19T18:57:37.066Z,7.35
2018-12-19T19:00:06.642Z,7.30
2018-12-19T19:02:35.120Z,7.29
2018-12-19T19:05:04.055Z,7.29
2018-12-19T19:07:32.508Z,7.28
2018-12-19T19:10:00.935Z,7.28
2018-12-19T19:12:29.611Z,7.24
2018-12-19T19:14:58.420Z,7.25
2018-12-19T19:17:26.839Z,7.27
2018-12-19T19:19:55.288Z,7.26
2018-12-19T19:22:23.679Z,7.22
2018-12-19T19:24:52.023Z,7.24
2018-12-19T19:27:20.491Z,7.22
2018-12-19T19:29:48.923Z,7.18
2018-12-19T19:32:18.777Z,7.16
2018-12-19T19:34:47.473Z,7.12
2018-12-19T19:37:15.906Z,7.13
2018-12-19T19:39:44.576Z,7.12
2018-12-19T19:42:12.951Z,7.28
2018-12-19T19:44:41.504Z,7.26
2018-12-19T19:47:09.937Z,7.23
2018-12-19T19:49:38.407Z,7.20
2018-12-19T19:52:06.964Z,7.15
2018-12-19T19:54:35.491Z,7.13
2018-12-19T19:57:03.999Z,7.13
2018-12-19T19:59:32.411Z,7.11
2018-12-19T20:02:00.825Z,7.16
2018-12-19T20:04:29.391Z,7.20
2018-12-19T20:07:00.877Z,7.23
2018-12-19T20:09:28.345Z,7.25
2018-12-19T20:11:57.871Z,7.27
2018-12-19T20:14:26.887Z,7.33
2018-12-19T20:17:01.167Z,7.39
2018-12-19T20:19:30.684Z,7.40
2018-12-19T20:21:59.452Z,7.41
2018-12-19T20:24:28.221Z,7.36
2018-12-19T20:26:56.976Z,7.30
2018-12-19T20:29:25.337Z,7.27
2018-12-19T20:31:54.337Z,7.26
2018-12-19T20:34:23.037Z,7.27
2018-12-19T20:36:51.818Z,7.26
2018-12-19T20:39:20.528Z,7.20
2018-12-19T20:41:49.261Z,7.08
2018-12-19T20:44:17.619Z,6.97
2018-12-19T20:46:46.503Z,6.87
2018-12-19T20:49:16.186Z,6.73
2018-12-19T20:51:44.904Z,6.63
2018-12-19T20:54:13.768Z,6.46
2018-12-19T20:56:42.191Z,6.30
2018-12-19T20:59:11.715Z,6.19
2018-12-19T21:01:40.432Z,6.07
2018-12-19T21:04:09.208Z,5.99
2018-12-19T21:06:37.876Z,5.97
2018-12-19T21:09:09.000Z,6.01
2018-12-19T21:11:37.869Z,6.19
2018-12-19T21:14:06.727Z,6.28
2018-12-19T21:16:40.901Z,6.29
2018-12-19T21:19:13.119Z,6.35
2018-12-19T21:21:42.506Z,6.36
2018-12-19T21:24:11.214Z,6.34
2018-12-19T21:26:39.941Z,6.47
2018-12-19T21:29:08.678Z,6.53
2018-12-19T21:31:37.319Z,6.54
2018-12-19T21:34:06.214Z,6.38
2018-12-19T21:36:35.572Z,6.20
2018-12-19T21:39:06.713Z,6.07
2018-12-19T21:41:35.532Z,5.96
2018-12-19T21:44:04.244Z,5.84
2018-12-19T21:46:32.967Z,5.98
2018-12-19T21:49:01.452Z,6.06
2018-12-19T21:51:31.944Z,6.03
2018-12-19T21:54:00.999Z,6.08
2018-12-19T21:56:29.746Z,6.06
2018-12-19T21:58:58.964Z,6.07
2018-12-19T22:01:27.891Z,6.06
2018-12-19T22:03:57.196Z,6.10
2018-12-19T22:06:30.318Z,5.99
2018-12-19T22:08:59.211Z,5.83
2018-12-19T22:11:28.288Z,5.72
2018-12-19T22:14:00.533Z,5.73
2018-12-19T22:16:32.443Z,5.76
2018-12-19T22:19:00.934Z,5.67
2018-12-19T22:21:29.579Z,5.64
2018-12-19T22:23:58.223Z,5.62
2018-12-19T22:26:26.601Z,5.51
2018-12-19T22:28:54.996Z,5.53
2018-12-19T22:31:23.513Z,5.47
2018-12-19T22:33:52.144Z,5.39
2018-12-19T22:36:20.580Z,5.34
2018-12-19T22:38:49.052Z,5.35
2018-12-19T22:41:17.551Z,5.46
2018-12-19T22:43:46.111Z,5.56
2018-12-19T22:46:14.528Z,5.58
2018-12-19T22:48:43.032Z,5.61
2018-12-19T22:51:11.515Z,5.58
2018-12-19T22:53:39.954Z,5.67
2018-12-19T22:56:08.326Z,5.67
2018-12-19T22:58:36.799Z,5.65
2018-12-19T23:01:11.226Z,5.64
2018-12-19T23:03:45.048Z,5.60
2018-12-19T23:06:13.495Z,5.55
2018-12-19T23:08:41.969Z,5.54
2018-12-19T23:11:10.411Z,5.48
2018-12-19T23:13:38.819Z,5.51
2018-12-19T23:16:07.215Z,5.53
2018-12-19T23:18:37.812Z,5.54
2018-12-19T23:21:06.356Z,5.51
2018-12-19T23:23:34.859Z,5.53
2018-12-19T23:26:03.568Z,5.62
2018-12-19T23:28:32.083Z,5.62
2018-12-19T23:31:00.587Z,5.68
2018-12-19T23:33:29.414Z,5.71
2018-12-19T23:35:57.923Z,5.71
2018-12-19T23:38:26.375Z,5.80
2018-12-19T23:40:54.769Z,5.84
2018-12-19T23:43:23.142Z,5.92
2018-12-19T23:45:51.563Z,5.98
2018-12-19T23:48:20.033Z,6.04
2018-12-19T23:50:48.508Z,6.06
2018-12-19T23:53:16.967Z,6.03
2018-12-19T23:55:45.537Z,6.05
2018-12-19T23:58:13.945Z,5.99
